Ana Sayfa
METAR-TAF:

METAR-TAF

Havaalanları :

Leigh Creek, Avustralya

Enlem: 30-35-54S, Boylam: 138-25-36E, yükseklik: 261 m

Güncel hava durumu gözlemi

Rapor saat 05:00 UTC de 1 saat ve 20 dakika önce yapıldı.
Rüzgar kuzeybatıdan 14 kt
Sıcaklık 19°C
Nem 26%
Basınç 1015 hPa

METAR: YLEC 220500Z AUTO 31014KT //// // ////// 19/M01 Q1015

Saat: 15:50 (06:20 UTC)


TAF: eksik

4.000'den fazla havaalanı için hava durumu gözlemleri ve tahminleri (METAR ve TAF raporları).

Kullanılabilir istasyonlar harita üzerinde sarı ve kırmızı noktalarla gösterilir.

İstasyonun adını görmek için fareyi noktanın üzerinde gezdirin.

Sonrasında hava gözlem ve tahminlerini görmek için tıklayın.

Haritayı değiştirmek için: yaklaştırmak için siyah artı işaretli yeşil düğmeye ve uzaklaştırmak için de eksi işaretli düğmeye hızla tıklayın; bitişik haritalar için yeşil okları kullanın.


METAR-TAF: